sensor_id;sensor_type;location;lat;lon;timestamp;P1;durP1;ratioP1;P2;durP2;ratioP2
6937;SDS011;40040;42.706;23.372;2023-08-24T00:00:29;20.02;;;17.13;;
6937;SDS011;40040;42.706;23.372;2023-08-24T00:02:57;21.30;;;16.55;;
6937;SDS011;40040;42.706;23.372;2023-08-24T00:05:24;19.77;;;16.48;;
6937;SDS011;40040;42.706;23.372;2023-08-24T00:07:51;22.88;;;16.50;;
6937;SDS011;40040;42.706;23.372;2023-08-24T00:10:18;21.85;;;17.10;;
6937;SDS011;40040;42.706;23.372;2023-08-24T00:12:45;19.77;;;16.33;;
6937;SDS011;40040;42.706;23.372;2023-08-24T00:15:11;19.08;;;15.40;;
6937;SDS011;40040;42.706;23.372;2023-08-24T00:17:40;18.27;;;15.27;;
6937;SDS011;40040;42.706;23.372;2023-08-24T00:20:07;21.27;;;15.52;;
6937;SDS011;40040;42.706;23.372;2023-08-24T00:22:36;18.05;;;15.50;;
6937;SDS011;40040;42.706;23.372;2023-08-24T00:25:04;18.20;;;15.52;;
6937;SDS011;40040;42.706;23.372;2023-08-24T00:27:32;19.80;;;15.05;;
6937;SDS011;40040;42.706;23.372;2023-08-24T00:29:59;18.02;;;15.75;;
6937;SDS011;40040;42.706;23.372;2023-08-24T00:32:26;19.50;;;15.75;;
6937;SDS011;40040;42.706;23.372;2023-08-24T00:34:55;19.40;;;15.82;;
6937;SDS011;40040;42.706;23.372;2023-08-24T00:37:22;20.05;;;15.18;;
6937;SDS011;40040;42.706;23.372;2023-08-24T00:39:49;18.73;;;15.02;;
6937;SDS011;40040;42.706;23.372;2023-08-24T00:42:24;20.15;;;14.95;;
6937;SDS011;40040;42.706;23.372;2023-08-24T00:44:51;21.17;;;15.95;;
6937;SDS011;40040;42.706;23.372;2023-08-24T00:47:18;20.02;;;16.15;;
6937;SDS011;40040;42.706;23.372;2023-08-24T00:49:45;19.70;;;16.38;;
6937;SDS011;40040;42.706;23.372;2023-08-24T00:52:12;23.63;;;16.33;;
6937;SDS011;40040;42.706;23.372;2023-08-24T00:54:40;19.98;;;15.85;;
6937;SDS011;40040;42.706;23.372;2023-08-24T00:57:07;22.02;;;16.38;;
6937;SDS011;40040;42.706;23.372;2023-08-24T00:59:35;21.80;;;15.85;;
6937;SDS011;40040;42.706;23.372;2023-08-24T01:02:02;22.67;;;15.65;;
6937;SDS011;40040;42.706;23.372;2023-08-24T01:04:29;18.98;;;15.70;;
6937;SDS011;40040;42.706;23.372;2023-08-24T01:06:56;22.58;;;15.75;;
6937;SDS011;40040;42.706;23.372;2023-08-24T01:09:23;20.50;;;15.68;;
6937;SDS011;40040;42.706;23.372;2023-08-24T01:12:00;18.42;;;15.13;;
6937;SDS011;40040;42.706;23.372;2023-08-24T01:14:35;21.92;;;15.20;;
6937;SDS011;40040;42.706;23.372;2023-08-24T01:17:09;17.55;;;14.85;;
6937;SDS011;40040;42.706;23.372;2023-08-24T01:19:40;18.98;;;15.57;;
6937;SDS011;40040;42.706;23.372;2023-08-24T01:22:23;21.10;;;16.17;;
6937;SDS011;40040;42.706;23.372;2023-08-24T01:25:00;22.63;;;16.48;;
6937;SDS011;40040;42.706;23.372;2023-08-24T01:27:34;20.55;;;15.85;;
6937;SDS011;40040;42.706;23.372;2023-08-24T01:30:02;18.45;;;14.98;;
6937;SDS011;40040;42.706;23.372;2023-08-24T01:32:29;16.60;;;13.93;;
6937;SDS011;40040;42.706;23.372;2023-08-24T01:34:57;15.70;;;14.00;;
6937;SDS011;40040;42.706;23.372;2023-08-24T01:37:24;16.95;;;13.95;;
6937;SDS011;40040;42.706;23.372;2023-08-24T01:39:53;16.83;;;14.43;;
6937;SDS011;40040;42.706;23.372;2023-08-24T01:42:31;19.27;;;14.38;;
6937;SDS011;40040;42.706;23.372;2023-08-24T01:45:04;16.20;;;13.65;;
6937;SDS011;40040;42.706;23.372;2023-08-24T01:47:33;14.77;;;12.32;;
6937;SDS011;40040;42.706;23.372;2023-08-24T01:50:02;15.70;;;13.85;;
6937;SDS011;40040;42.706;23.372;2023-08-24T01:52:29;17.58;;;13.27;;
6937;SDS011;40040;42.706;23.372;2023-08-24T01:54:57;16.75;;;13.52;;
6937;SDS011;40040;42.706;23.372;2023-08-24T01:57:24;15.73;;;13.32;;
6937;SDS011;40040;42.706;23.372;2023-08-24T01:59:53;15.07;;;13.07;;
6937;SDS011;40040;42.706;23.372;2023-08-24T02:02:20;14.88;;;13.25;;
6937;SDS011;40040;42.706;23.372;2023-08-24T02:04:47;14.02;;;12.52;;
6937;SDS011;40040;42.706;23.372;2023-08-24T02:07:14;15.20;;;13.60;;
6937;SDS011;40040;42.706;23.372;2023-08-24T02:09:41;20.88;;;13.63;;
6937;SDS011;40040;42.706;23.372;2023-08-24T02:12:08;17.23;;;14.93;;
6937;SDS011;40040;42.706;23.372;2023-08-24T02:14:34;17.35;;;13.88;;
6937;SDS011;40040;42.706;23.372;2023-08-24T02:17:03;17.85;;;13.48;;
6937;SDS011;40040;42.706;23.372;2023-08-24T02:19:30;16.60;;;13.77;;
6937;SDS011;40040;42.706;23.372;2023-08-24T02:21:57;18.17;;;14.38;;
6937;SDS011;40040;42.706;23.372;2023-08-24T02:24:23;16.10;;;13.10;;
6937;SDS011;40040;42.706;23.372;2023-08-24T02:26:50;16.85;;;14.05;;
6937;SDS011;40040;42.706;23.372;2023-08-24T02:29:17;17.55;;;14.55;;
6937;SDS011;40040;42.706;23.372;2023-08-24T02:31:44;17.13;;;14.20;;
6937;SDS011;40040;42.706;23.372;2023-08-24T02:34:12;19.58;;;14.60;;
6937;SDS011;40040;42.706;23.372;2023-08-24T02:36:39;17.20;;;14.48;;
6937;SDS011;40040;42.706;23.372;2023-08-24T02:39:06;20.17;;;14.75;;
6937;SDS011;40040;42.706;23.372;2023-08-24T02:41:33;17.90;;;14.88;;
6937;SDS011;40040;42.706;23.372;2023-08-24T02:44:00;18.83;;;15.27;;
6937;SDS011;40040;42.706;23.372;2023-08-24T02:46:27;19.33;;;15.15;;
6937;SDS011;40040;42.706;23.372;2023-08-24T02:48:55;19.27;;;15.15;;
6937;SDS011;40040;42.706;23.372;2023-08-24T02:51:23;17.80;;;15.00;;
6937;SDS011;40040;42.706;23.372;2023-08-24T02:53:50;17.70;;;14.25;;
6937;SDS011;40040;42.706;23.372;2023-08-24T02:56:17;17.85;;;14.45;;
6937;SDS011;40040;42.706;23.372;2023-08-24T02:58:43;17.60;;;14.57;;
6937;SDS011;40040;42.706;23.372;2023-08-24T03:01:10;18.83;;;14.25;;
6937;SDS011;40040;42.706;23.372;2023-08-24T03:03:37;20.70;;;15.88;;
6937;SDS011;40040;42.706;23.372;2023-08-24T03:06:05;22.98;;;16.95;;
6937;SDS011;40040;42.706;23.372;2023-08-24T03:08:34;25.88;;;18.00;;
6937;SDS011;40040;42.706;23.372;2023-08-24T03:11:01;26.27;;;17.02;;
6937;SDS011;40040;42.706;23.372;2023-08-24T03:13:28;20.88;;;16.33;;
6937;SDS011;40040;42.706;23.372;2023-08-24T03:15:56;23.52;;;17.75;;
6937;SDS011;40040;42.706;23.372;2023-08-24T03:18:23;23.10;;;17.52;;
6937;SDS011;40040;42.706;23.372;2023-08-24T03:20:50;22.88;;;17.08;;
6937;SDS011;40040;42.706;23.372;2023-08-24T03:23:17;21.20;;;16.63;;
6937;SDS011;40040;42.706;23.372;2023-08-24T03:25:44;21.20;;;16.73;;
6937;SDS011;40040;42.706;23.372;2023-08-24T03:28:11;24.85;;;18.30;;
6937;SDS011;40040;42.706;23.372;2023-08-24T03:30:39;35.33;;;19.75;;
6937;SDS011;40040;42.706;23.372;2023-08-24T03:33:11;29.88;;;19.52;;
6937;SDS011;40040;42.706;23.372;2023-08-24T03:35:39;24.05;;;18.27;;
6937;SDS011;40040;42.706;23.372;2023-08-24T03:38:07;25.95;;;18.77;;
6937;SDS011;40040;42.706;23.372;2023-08-24T03:40:34;27.30;;;19.63;;
6937;SDS011;40040;42.706;23.372;2023-08-24T03:43:02;29.17;;;20.05;;
6937;SDS011;40040;42.706;23.372;2023-08-24T03:45:29;30.80;;;19.60;;
6937;SDS011;40040;42.706;23.372;2023-08-24T03:47:56;26.75;;;18.38;;
6937;SDS011;40040;42.706;23.372;2023-08-24T03:50:23;24.92;;;19.20;;
6937;SDS011;40040;42.706;23.372;2023-08-24T03:52:51;25.33;;;19.50;;
6937;SDS011;40040;42.706;23.372;2023-08-24T03:55:19;24.15;;;17.75;;
6937;SDS011;40040;42.706;23.372;2023-08-24T03:57:46;22.42;;;17.42;;
6937;SDS011;40040;42.706;23.372;2023-08-24T04:00:15;22.00;;;17.80;;
6937;SDS011;40040;42.706;23.372;2023-08-24T04:02:42;24.42;;;18.25;;
6937;SDS011;40040;42.706;23.372;2023-08-24T04:05:09;24.27;;;18.00;;
6937;SDS011;40040;42.706;23.372;2023-08-24T04:07:37;23.67;;;17.33;;
6937;SDS011;40040;42.706;23.372;2023-08-24T04:10:05;21.90;;;16.88;;
6937;SDS011;40040;42.706;23.372;2023-08-24T04:12:33;23.08;;;17.48;;
6937;SDS011;40040;42.706;23.372;2023-08-24T04:15:00;22.92;;;17.52;;
6937;SDS011;40040;42.706;23.372;2023-08-24T04:17:28;24.38;;;17.90;;
6937;SDS011;40040;42.706;23.372;2023-08-24T04:19:55;23.70;;;18.05;;
6937;SDS011;40040;42.706;23.372;2023-08-24T04:22:22;24.65;;;16.60;;
6937;SDS011;40040;42.706;23.372;2023-08-24T04:24:49;25.58;;;18.33;;
6937;SDS011;40040;42.706;23.372;2023-08-24T04:27:16;26.80;;;18.88;;
6937;SDS011;40040;42.706;23.372;2023-08-24T04:29:43;22.08;;;17.73;;
6937;SDS011;40040;42.706;23.372;2023-08-24T04:32:10;25.10;;;17.65;;
6937;SDS011;40040;42.706;23.372;2023-08-24T04:34:38;26.83;;;19.77;;
6937;SDS011;40040;42.706;23.372;2023-08-24T04:37:05;25.35;;;18.27;;
6937;SDS011;40040;42.706;23.372;2023-08-24T04:39:32;26.13;;;18.40;;
6937;SDS011;40040;42.706;23.372;2023-08-24T04:41:59;26.30;;;18.20;;
6937;SDS011;40040;42.706;23.372;2023-08-24T04:44:25;25.70;;;17.73;;
6937;SDS011;40040;42.706;23.372;2023-08-24T04:46:52;30.90;;;20.27;;
6937;SDS011;40040;42.706;23.372;2023-08-24T04:49:19;26.02;;;18.52;;
6937;SDS011;40040;42.706;23.372;2023-08-24T04:51:47;29.67;;;18.45;;
6937;SDS011;40040;42.706;23.372;2023-08-24T04:54:14;24.73;;;18.38;;
6937;SDS011;40040;42.706;23.372;2023-08-24T04:56:41;28.13;;;18.35;;
6937;SDS011;40040;42.706;23.372;2023-08-24T04:59:08;28.70;;;19.15;;
6937;SDS011;40040;42.706;23.372;2023-08-24T05:01:35;35.08;;;19.50;;
6937;SDS011;40040;42.706;23.372;2023-08-24T05:04:02;28.95;;;19.30;;
6937;SDS011;40040;42.706;23.372;2023-08-24T05:06:29;30.10;;;20.55;;
6937;SDS011;40040;42.706;23.372;2023-08-24T05:08:57;31.23;;;19.85;;
6937;SDS011;40040;42.706;23.372;2023-08-24T05:11:26;27.98;;;20.98;;
6937;SDS011;40040;42.706;23.372;2023-08-24T05:13:54;32.00;;;19.83;;
6937;SDS011;40040;42.706;23.372;2023-08-24T05:16:21;27.58;;;18.70;;
6937;SDS011;40040;42.706;23.372;2023-08-24T05:18:49;23.95;;;19.00;;
6937;SDS011;40040;42.706;23.372;2023-08-24T05:21:16;26.83;;;18.75;;
6937;SDS011;40040;42.706;23.372;2023-08-24T05:23:42;27.17;;;19.20;;
6937;SDS011;40040;42.706;23.372;2023-08-24T05:26:11;27.17;;;19.98;;
6937;SDS011;40040;42.706;23.372;2023-08-24T05:28:37;29.23;;;18.90;;
6937;SDS011;40040;42.706;23.372;2023-08-24T05:31:05;21.65;;;17.02;;
6937;SDS011;40040;42.706;23.372;2023-08-24T05:33:31;23.75;;;18.30;;
6937;SDS011;40040;42.706;23.372;2023-08-24T05:35:58;24.73;;;17.58;;
6937;SDS011;40040;42.706;23.372;2023-08-24T05:38:25;25.05;;;18.90;;
6937;SDS011;40040;42.706;23.372;2023-08-24T05:40:52;67.88;;;47.35;;
6937;SDS011;40040;42.706;23.372;2023-08-24T05:43:21;37.90;;;23.33;;
6937;SDS011;40040;42.706;23.372;2023-08-24T05:45:48;65.22;;;39.30;;
6937;SDS011;40040;42.706;23.372;2023-08-24T05:48:15;39.38;;;22.63;;
6937;SDS011;40040;42.706;23.372;2023-08-24T05:50:42;31.42;;;20.88;;
6937;SDS011;40040;42.706;23.372;2023-08-24T05:53:10;32.10;;;20.13;;
6937;SDS011;40040;42.706;23.372;2023-08-24T05:55:37;32.65;;;21.05;;
6937;SDS011;40040;42.706;23.372;2023-08-24T05:58:04;66.57;;;43.17;;
6937;SDS011;40040;42.706;23.372;2023-08-24T06:00:32;27.27;;;20.08;;
6937;SDS011;40040;42.706;23.372;2023-08-24T06:02:59;26.55;;;19.48;;
6937;SDS011;40040;42.706;23.372;2023-08-24T06:05:29;27.65;;;19.10;;
6937;SDS011;40040;42.706;23.372;2023-08-24T06:07:56;46.55;;;29.50;;
6937;SDS011;40040;42.706;23.372;2023-08-24T06:10:23;26.10;;;18.90;;
6937;SDS011;40040;42.706;23.372;2023-08-24T06:12:51;21.08;;;17.02;;
6937;SDS011;40040;42.706;23.372;2023-08-24T06:15:18;19.88;;;16.52;;
6937;SDS011;40040;42.706;23.372;2023-08-24T06:17:50;21.60;;;16.20;;
6937;SDS011;40040;42.706;23.372;2023-08-24T06:20:17;22.92;;;17.17;;
6937;SDS011;40040;42.706;23.372;2023-08-24T06:22:44;22.63;;;17.20;;
6937;SDS011;40040;42.706;23.372;2023-08-24T06:25:11;21.08;;;15.98;;
6937;SDS011;40040;42.706;23.372;2023-08-24T06:27:38;18.55;;;15.93;;
6937;SDS011;40040;42.706;23.372;2023-08-24T06:30:05;19.85;;;16.52;;
6937;SDS011;40040;42.706;23.372;2023-08-24T06:32:33;29.98;;;22.10;;
6937;SDS011;40040;42.706;23.372;2023-08-24T06:35:01;20.10;;;17.08;;
6937;SDS011;40040;42.706;23.372;2023-08-24T06:37:28;19.42;;;15.98;;
6937;SDS011;40040;42.706;23.372;2023-08-24T06:39:55;20.00;;;16.77;;
6937;SDS011;40040;42.706;23.372;2023-08-24T06:42:22;19.30;;;15.38;;
6937;SDS011;40040;42.706;23.372;2023-08-24T06:44:49;25.58;;;21.60;;
6937;SDS011;40040;42.706;23.372;2023-08-24T06:47:16;23.58;;;19.55;;
6937;SDS011;40040;42.706;23.372;2023-08-24T06:49:43;22.92;;;17.50;;
6937;SDS011;40040;42.706;23.372;2023-08-24T06:52:11;25.50;;;18.17;;
6937;SDS011;40040;42.706;23.372;2023-08-24T06:54:38;20.65;;;17.27;;
6937;SDS011;40040;42.706;23.372;2023-08-24T06:57:05;22.75;;;18.52;;
6937;SDS011;40040;42.706;23.372;2023-08-24T06:59:32;28.10;;;21.65;;
6937;SDS011;40040;42.706;23.372;2023-08-24T07:01:59;23.60;;;19.75;;
6937;SDS011;40040;42.706;23.372;2023-08-24T07:04:26;22.10;;;18.38;;
6937;SDS011;40040;42.706;23.372;2023-08-24T07:06:53;21.55;;;18.00;;
6937;SDS011;40040;42.706;23.372;2023-08-24T07:09:21;20.00;;;17.90;;
6937;SDS011;40040;42.706;23.372;2023-08-24T07:11:48;23.33;;;19.27;;
6937;SDS011;40040;42.706;23.372;2023-08-24T07:14:15;20.60;;;17.63;;
6937;SDS011;40040;42.706;23.372;2023-08-24T07:16:42;19.58;;;17.55;;
6937;SDS011;40040;42.706;23.372;2023-08-24T07:19:09;19.88;;;17.80;;
6937;SDS011;40040;42.706;23.372;2023-08-24T07:21:35;22.42;;;18.48;;
6937;SDS011;40040;42.706;23.372;2023-08-24T07:24:03;24.02;;;19.05;;
6937;SDS011;40040;42.706;23.372;2023-08-24T07:26:31;22.45;;;19.60;;
6937;SDS011;40040;42.706;23.372;2023-08-24T07:28:58;23.35;;;18.95;;
6937;SDS011;40040;42.706;23.372;2023-08-24T07:31:25;22.92;;;19.50;;
6937;SDS011;40040;42.706;23.372;2023-08-24T07:33:52;22.02;;;18.58;;
6937;SDS011;40040;42.706;23.372;2023-08-24T07:36:19;22.73;;;19.08;;
6937;SDS011;40040;42.706;23.372;2023-08-24T07:38:46;20.33;;;17.80;;
6937;SDS011;40040;42.706;23.372;2023-08-24T07:41:13;22.48;;;18.83;;
6937;SDS011;40040;42.706;23.372;2023-08-24T07:43:43;23.30;;;18.55;;
6937;SDS011;40040;42.706;23.372;2023-08-24T07:46:10;24.40;;;18.33;;
6937;SDS011;40040;42.706;23.372;2023-08-24T07:48:37;24.90;;;20.25;;
6937;SDS011;40040;42.706;23.372;2023-08-24T07:51:04;23.08;;;19.08;;
6937;SDS011;40040;42.706;23.372;2023-08-24T07:53:31;21.88;;;19.08;;
6937;SDS011;40040;42.706;23.372;2023-08-24T07:55:59;25.48;;;18.35;;
6937;SDS011;40040;42.706;23.372;2023-08-24T07:58:26;21.10;;;17.90;;
6937;SDS011;40040;42.706;23.372;2023-08-24T08:00:54;22.70;;;19.55;;
6937;SDS011;40040;42.706;23.372;2023-08-24T08:03:21;22.42;;;18.60;;
6937;SDS011;40040;42.706;23.372;2023-08-24T08:05:48;21.25;;;17.92;;
6937;SDS011;40040;42.706;23.372;2023-08-24T08:08:15;19.00;;;16.98;;
6937;SDS011;40040;42.706;23.372;2023-08-24T08:10:42;20.25;;;17.13;;
6937;SDS011;40040;42.706;23.372;2023-08-24T08:13:09;18.92;;;16.92;;
6937;SDS011;40040;42.706;23.372;2023-08-24T08:15:37;21.40;;;17.65;;
6937;SDS011;40040;42.706;23.372;2023-08-24T08:18:05;18.80;;;16.73;;
6937;SDS011;40040;42.706;23.372;2023-08-24T08:20:32;21.85;;;16.85;;
6937;SDS011;40040;42.706;23.372;2023-08-24T08:22:59;19.10;;;17.10;;
6937;SDS011;40040;42.706;23.372;2023-08-24T08:25:26;18.90;;;16.90;;
6937;SDS011;40040;42.706;23.372;2023-08-24T08:27:53;19.83;;;17.50;;
6937;SDS011;40040;42.706;23.372;2023-08-24T08:30:20;18.83;;;16.77;;
6937;SDS011;40040;42.706;23.372;2023-08-24T08:32:47;18.25;;;16.45;;
6937;SDS011;40040;42.706;23.372;2023-08-24T08:35:17;20.83;;;17.23;;
6937;SDS011;40040;42.706;23.372;2023-08-24T08:37:44;24.30;;;21.67;;
6937;SDS011;40040;42.706;23.372;2023-08-24T08:40:11;28.05;;;20.88;;
6937;SDS011;40040;42.706;23.372;2023-08-24T08:42:38;22.08;;;18.30;;
6937;SDS011;40040;42.706;23.372;2023-08-24T08:45:08;18.27;;;16.02;;
6937;SDS011;40040;42.706;23.372;2023-08-24T08:47:36;17.48;;;14.88;;
6937;SDS011;40040;42.706;23.372;2023-08-24T08:50:03;16.10;;;14.43;;
6937;SDS011;40040;42.706;23.372;2023-08-24T08:52:32;19.05;;;15.35;;
6937;SDS011;40040;42.706;23.372;2023-08-24T08:54:59;18.23;;;15.13;;
6937;SDS011;40040;42.706;23.372;2023-08-24T08:57:26;17.02;;;15.32;;
6937;SDS011;40040;42.706;23.372;2023-08-24T08:59:53;16.38;;;14.68;;
6937;SDS011;40040;42.706;23.372;2023-08-24T09:02:21;15.93;;;14.15;;
6937;SDS011;40040;42.706;23.372;2023-08-24T09:04:50;17.25;;;14.85;;
6937;SDS011;40040;42.706;23.372;2023-08-24T09:07:17;17.70;;;15.50;;
6937;SDS011;40040;42.706;23.372;2023-08-24T09:09:47;16.05;;;14.35;;
6937;SDS011;40040;42.706;23.372;2023-08-24T09:12:14;17.52;;;15.18;;
6937;SDS011;40040;42.706;23.372;2023-08-24T09:14:41;17.45;;;15.18;;
6937;SDS011;40040;42.706;23.372;2023-08-24T09:17:07;19.25;;;15.00;;
6937;SDS011;40040;42.706;23.372;2023-08-24T09:19:34;17.35;;;15.57;;
6937;SDS011;40040;42.706;23.372;2023-08-24T09:22:03;16.75;;;14.98;;
6937;SDS011;40040;42.706;23.372;2023-08-24T09:24:31;16.55;;;15.00;;
6937;SDS011;40040;42.706;23.372;2023-08-24T09:27:00;16.90;;;15.15;;
6937;SDS011;40040;42.706;23.372;2023-08-24T09:29:40;17.40;;;15.18;;
6937;SDS011;40040;42.706;23.372;2023-08-24T09:32:07;17.15;;;15.45;;
6937;SDS011;40040;42.706;23.372;2023-08-24T09:34:35;17.48;;;14.85;;
6937;SDS011;40040;42.706;23.372;2023-08-24T09:37:03;17.33;;;15.52;;
6937;SDS011;40040;42.706;23.372;2023-08-24T09:39:30;16.35;;;14.68;;
6937;SDS011;40040;42.706;23.372;2023-08-24T09:42:00;16.98;;;14.95;;
6937;SDS011;40040;42.706;23.372;2023-08-24T09:44:28;17.50;;;15.52;;
6937;SDS011;40040;42.706;23.372;2023-08-24T09:46:55;17.05;;;14.80;;
6937;SDS011;40040;42.706;23.372;2023-08-24T09:49:22;17.35;;;15.55;;
6937;SDS011;40040;42.706;23.372;2023-08-24T09:51:51;16.48;;;14.85;;
6937;SDS011;40040;42.706;23.372;2023-08-24T09:54:21;16.83;;;15.00;;
6937;SDS011;40040;42.706;23.372;2023-08-24T09:56:54;17.13;;;15.35;;
6937;SDS011;40040;42.706;23.372;2023-08-24T09:59:23;16.88;;;15.07;;
6937;SDS011;40040;42.706;23.372;2023-08-24T10:01:53;17.48;;;14.95;;
6937;SDS011;40040;42.706;23.372;2023-08-24T10:04:22;16.52;;;14.93;;
6937;SDS011;40040;42.706;23.372;2023-08-24T10:06:51;16.58;;;14.48;;
6937;SDS011;40040;42.706;23.372;2023-08-24T10:09:22;16.33;;;14.70;;
6937;SDS011;40040;42.706;23.372;2023-08-24T10:11:55;15.85;;;14.30;;
6937;SDS011;40040;42.706;23.372;2023-08-24T10:14:28;16.17;;;14.57;;
6937;SDS011;40040;42.706;23.372;2023-08-24T10:16:58;18.20;;;14.13;;
6937;SDS011;40040;42.706;23.372;2023-08-24T10:19:25;16.90;;;15.20;;
6937;SDS011;40040;42.706;23.372;2023-08-24T10:21:54;16.60;;;14.98;;
6937;SDS011;40040;42.706;23.372;2023-08-24T10:24:23;14.57;;;13.20;;
6937;SDS011;40040;42.706;23.372;2023-08-24T10:26:50;15.48;;;13.73;;
6937;SDS011;40040;42.706;23.372;2023-08-24T10:29:17;16.52;;;14.82;;
6937;SDS011;40040;42.706;23.372;2023-08-24T10:31:47;15.68;;;14.05;;
6937;SDS011;40040;42.706;23.372;2023-08-24T10:34:15;15.90;;;14.30;;
6937;SDS011;40040;42.706;23.372;2023-08-24T10:36:42;15.15;;;13.65;;
6937;SDS011;40040;42.706;23.372;2023-08-24T10:39:09;15.45;;;13.25;;
6937;SDS011;40040;42.706;23.372;2023-08-24T10:41:48;15.95;;;14.40;;
6937;SDS011;40040;42.706;23.372;2023-08-24T10:44:22;15.10;;;13.80;;
6937;SDS011;40040;42.706;23.372;2023-08-24T10:47:07;16.15;;;14.60;;
6937;SDS011;40040;42.706;23.372;2023-08-24T10:49:38;16.50;;;14.75;;
6937;SDS011;40040;42.706;23.372;2023-08-24T10:52:21;18.98;;;14.73;;
6937;SDS011;40040;42.706;23.372;2023-08-24T10:54:49;17.15;;;15.02;;
6937;SDS011;40040;42.706;23.372;2023-08-24T10:57:21;15.93;;;14.32;;
6937;SDS011;40040;42.706;23.372;2023-08-24T10:59:59;14.40;;;12.90;;
6937;SDS011;40040;42.706;23.372;2023-08-24T11:02:33;15.15;;;11.82;;
6937;SDS011;40040;42.706;23.372;2023-08-24T11:05:14;16.17;;;13.90;;
6937;SDS011;40040;42.706;23.372;2023-08-24T11:07:49;15.57;;;13.98;;
6937;SDS011;40040;42.706;23.372;2023-08-24T11:10:20;15.05;;;13.35;;
6937;SDS011;40040;42.706;23.372;2023-08-24T11:13:07;15.40;;;13.93;;
6937;SDS011;40040;42.706;23.372;2023-08-24T11:15:37;14.70;;;13.20;;
6937;SDS011;40040;42.706;23.372;2023-08-24T11:18:19;15.27;;;13.85;;
6937;SDS011;40040;42.706;23.372;2023-08-24T11:20:48;15.20;;;13.70;;
6937;SDS011;40040;42.706;23.372;2023-08-24T11:23:16;16.63;;;14.93;;
6937;SDS011;40040;42.706;23.372;2023-08-24T11:25:44;16.05;;;14.35;;
6937;SDS011;40040;42.706;23.372;2023-08-24T11:28:11;16.02;;;14.35;;
6937;SDS011;40040;42.706;23.372;2023-08-24T11:30:43;16.95;;;15.15;;
6937;SDS011;40040;42.706;23.372;2023-08-24T11:33:11;15.98;;;14.25;;
6937;SDS011;40040;42.706;23.372;2023-08-24T11:35:40;16.83;;;14.73;;
6937;SDS011;40040;42.706;23.372;2023-08-24T11:38:09;16.30;;;14.55;;
6937;SDS011;40040;42.706;23.372;2023-08-24T11:40:36;17.08;;;14.38;;
6937;SDS011;40040;42.706;23.372;2023-08-24T11:43:03;19.40;;;14.60;;
6937;SDS011;40040;42.706;23.372;2023-08-24T11:45:30;15.45;;;13.85;;
6937;SDS011;40040;42.706;23.372;2023-08-24T11:47:58;20.13;;;14.13;;
6937;SDS011;40040;42.706;23.372;2023-08-24T11:50:25;16.48;;;14.13;;
6937;SDS011;40040;42.706;23.372;2023-08-24T11:52:54;16.27;;;14.13;;
6937;SDS011;40040;42.706;23.372;2023-08-24T11:55:21;14.90;;;13.50;;
6937;SDS011;40040;42.706;23.372;2023-08-24T11:57:48;13.93;;;12.63;;
6937;SDS011;40040;42.706;23.372;2023-08-24T12:00:15;14.32;;;12.82;;
6937;SDS011;40040;42.706;23.372;2023-08-24T12:02:44;14.68;;;11.55;;
6937;SDS011;40040;42.706;23.372;2023-08-24T12:05:19;12.45;;;11.10;;
6937;SDS011;40040;42.706;23.372;2023-08-24T12:07:47;18.40;;;11.50;;
6937;SDS011;40040;42.706;23.372;2023-08-24T12:10:15;14.20;;;12.35;;
6937;SDS011;40040;42.706;23.372;2023-08-24T12:12:42;13.43;;;11.85;;
6937;SDS011;40040;42.706;23.372;2023-08-24T12:15:14;12.50;;;11.32;;
6937;SDS011;40040;42.706;23.372;2023-08-24T12:17:43;13.15;;;11.07;;
6937;SDS011;40040;42.706;23.372;2023-08-24T12:20:17;11.80;;;10.70;;
6937;SDS011;40040;42.706;23.372;2023-08-24T12:22:49;12.05;;;10.55;;
6937;SDS011;40040;42.706;23.372;2023-08-24T12:25:19;14.18;;;12.68;;
6937;SDS011;40040;42.706;23.372;2023-08-24T12:27:48;15.00;;;12.20;;
6937;SDS011;40040;42.706;23.372;2023-08-24T12:30:16;16.55;;;12.85;;
6937;SDS011;40040;42.706;23.372;2023-08-24T12:32:43;14.20;;;12.02;;
6937;SDS011;40040;42.706;23.372;2023-08-24T12:35:11;14.20;;;11.88;;
6937;SDS011;40040;42.706;23.372;2023-08-24T12:37:38;16.60;;;13.13;;
6937;SDS011;40040;42.706;23.372;2023-08-24T12:40:05;17.35;;;13.77;;
6937;SDS011;40040;42.706;23.372;2023-08-24T12:42:34;17.27;;;14.10;;
6937;SDS011;40040;42.706;23.372;2023-08-24T12:45:01;16.70;;;13.90;;
6937;SDS011;40040;42.706;23.372;2023-08-24T12:47:28;18.95;;;14.43;;
6937;SDS011;40040;42.706;23.372;2023-08-24T12:49:54;21.23;;;15.18;;
6937;SDS011;40040;42.706;23.372;2023-08-24T12:52:21;17.30;;;13.80;;
6937;SDS011;40040;42.706;23.372;2023-08-24T12:54:50;17.08;;;14.13;;
6937;SDS011;40040;42.706;23.372;2023-08-24T12:57:16;17.02;;;13.73;;
6937;SDS011;40040;42.706;23.372;2023-08-24T12:59:45;16.17;;;13.23;;
6937;SDS011;40040;42.706;23.372;2023-08-24T13:02:12;15.75;;;13.57;;
6937;SDS011;40040;42.706;23.372;2023-08-24T13:04:39;15.40;;;12.82;;
6937;SDS011;40040;42.706;23.372;2023-08-24T13:07:05;14.63;;;13.13;;
6937;SDS011;40040;42.706;23.372;2023-08-24T13:09:34;14.75;;;13.25;;
6937;SDS011;40040;42.706;23.372;2023-08-24T13:12:01;20.23;;;13.77;;
6937;SDS011;40040;42.706;23.372;2023-08-24T13:14:28;15.60;;;12.90;;
6937;SDS011;40040;42.706;23.372;2023-08-24T13:16:56;14.95;;;13.35;;
6937;SDS011;40040;42.706;23.372;2023-08-24T13:19:23;16.92;;;13.35;;
6937;SDS011;40040;42.706;23.372;2023-08-24T13:21:50;18.63;;;13.80;;
6937;SDS011;40040;42.706;23.372;2023-08-24T13:24:17;20.00;;;13.27;;
6937;SDS011;40040;42.706;23.372;2023-08-24T13:26:43;15.32;;;12.75;;
6937;SDS011;40040;42.706;23.372;2023-08-24T13:29:10;14.65;;;12.48;;
6937;SDS011;40040;42.706;23.372;2023-08-24T13:31:37;18.38;;;13.80;;
6937;SDS011;40040;42.706;23.372;2023-08-24T13:34:05;15.60;;;13.48;;
6937;SDS011;40040;42.706;23.372;2023-08-24T13:36:32;16.70;;;13.57;;
6937;SDS011;40040;42.706;23.372;2023-08-24T13:38:59;15.63;;;13.50;;
6937;SDS011;40040;42.706;23.372;2023-08-24T13:41:26;16.27;;;13.80;;
6937;SDS011;40040;42.706;23.372;2023-08-24T13:43:53;15.18;;;13.00;;
6937;SDS011;40040;42.706;23.372;2023-08-24T13:46:20;15.48;;;13.90;;
6937;SDS011;40040;42.706;23.372;2023-08-24T13:48:46;16.13;;;14.38;;
6937;SDS011;40040;42.706;23.372;2023-08-24T13:51:15;16.02;;;14.32;;
6937;SDS011;40040;42.706;23.372;2023-08-24T13:53:41;16.40;;;14.55;;
6937;SDS011;40040;42.706;23.372;2023-08-24T13:56:08;17.55;;;15.02;;
6937;SDS011;40040;42.706;23.372;2023-08-24T13:58:35;15.95;;;14.30;;
6937;SDS011;40040;42.706;23.372;2023-08-24T14:01:02;16.10;;;14.43;;
6937;SDS011;40040;42.706;23.372;2023-08-24T14:03:29;16.65;;;14.15;;
6937;SDS011;40040;42.706;23.372;2023-08-24T14:05:56;18.23;;;13.85;;
6937;SDS011;40040;42.706;23.372;2023-08-24T14:08:24;15.95;;;14.38;;
6937;SDS011;40040;42.706;23.372;2023-08-24T14:10:51;16.13;;;14.43;;
6937;SDS011;40040;42.706;23.372;2023-08-24T14:13:18;19.17;;;14.95;;
6937;SDS011;40040;42.706;23.372;2023-08-24T14:15:47;18.17;;;14.50;;
6937;SDS011;40040;42.706;23.372;2023-08-24T14:18:14;16.35;;;14.55;;
6937;SDS011;40040;42.706;23.372;2023-08-24T14:20:42;15.85;;;14.15;;
6937;SDS011;40040;42.706;23.372;2023-08-24T14:23:08;17.27;;;14.68;;
6937;SDS011;40040;42.706;23.372;2023-08-24T14:25:37;30.10;;;15.32;;